Axtell, KS (66403)

1:45 AM CDT on July 30, 2016 (GMT -0500)
Brenner | | Change Station

Elev 984 ft 40.08 °N, 95.59 °W | Updated 52 minutes ago

Clear
Clear
67 °F
Feels Like 67 °F
N
0
Wind Variable Wind from North

Today
High -- | Low -- °F
--% Chance of Precip.
Yesterday
High -- | Low -- °F
Precip. -- in
Pressure 30.01 in
Visibility 10.0 miles
Clouds Clear
Dew Point 64 °F
Humidity 90%
Rainfall 0.00 in
Snow Depth Not available.
6:22 AM 8:39 PM
Waning Crescent, 15% visible
METAR KFNB 300553Z AUTO 00000KT 10SM CLR 19/18 A3003 RMK AO2 SLP160 60000 T01940178 10267 20189 402780189 51010
Pressure 30.01 in
Visibility 10.0 miles
Clouds Clear
Dew Point 64 °F
Humidity 90%
Rainfall 0.00 in
Snow Depth Not available.
6:22 AM 8:39 PM
Waning Crescent, 15% visible
METAR KFNB 300553Z AUTO 00000KT 10SM CLR 19/18 A3003 RMK AO2 SLP160 60000 T01940178 10267 20189 402780189 51010

10-Day Weather Forecast

Almanac

Astronomy

Jul. 30, 2016 Rise Set
Actual Time
Civil Twilight
Nautical Twilight
Astronomical Twilight
Moon
Length of Visible Light
Length of Day
Tomorrow will be .
, % of the Moon is Illuminated

Today's Extremes

State Highs State Lows

Community

WunderPhotos

Upload Photos

1,928,508 photos uploaded!

WunderBlog® & News

Nearby

Air Quality

  Air Quality AQ Index Pollutant
Not available.

Snow Depth

Station Depth Elevation

Earthquake Activity

City Distance Mag. Time & Date
Minimum magnitude displayed is 2.5.

Coastal Water Temperatures

Place Temperature

Stations

Nearby Weather Stations

Station Location Temp. Windchill Dew Point Humidity Wind Precip. Elev Updated Type
                   

Watches & Warnings

There are currently no watches in effect.